Time;durP1;ratioP1;P1;durP2;ratioP2;P2;SDS_P1;SDS_P2;PMS_P1;PMS_P2;Temp;Humidity;BMP_temperature;BMP_pressure;BME280_temperature;BME280_humidity;BME280_pressure;Samples;Min_cycle;Max_cycle;Signal;HPM_P1;HPM_P2
2022/03/16 00:01:38;;;;;;;69.60;37.47;;;;;;;9.63;71.52;99868.59;5186604;28;20061;-90
2022/03/16 00:04:29;;;;;;;66.95;38.17;;;;;;;9.68;71.71;99853.22;5170104;28;20046;-69
2022/03/16 00:07:20;;;;;;;71.72;38.05;;;;;;;9.62;71.76;99859.00;5160751;28;20511;-69
2022/03/16 00:10:11;;;;;;;68.78;38.60;;;;;;;9.84;70.41;99863.50;5162636;28;20124;-69
2022/03/16 00:13:01;;;;;;;71.43;37.17;;;;;;;9.87;70.10;99866.75;5161961;28;20189;-69
2022/03/16 00:15:51;;;;;;;62.28;35.53;;;;;;;9.83;70.25;99869.75;5161900;28;20061;-68
2022/03/16 00:18:42;;;;;;;63.25;35.35;;;;;;;9.91;70.49;99874.47;5161859;28;20057;-68
2022/03/16 00:21:33;;;;;;;62.33;35.53;;;;;;;9.82;70.19;99863.59;5162161;28;20423;-69
2022/03/16 00:24:23;;;;;;;61.63;35.25;;;;;;;9.76;71.12;99874.66;5162265;28;20061;-71
2022/03/16 00:27:14;;;;;;;63.78;35.90;;;;;;;9.84;70.96;99855.56;5163820;28;20062;-70
2022/03/16 00:30:05;;;;;;;64.68;36.50;;;;;;;9.91;70.21;99875.31;5168088;28;20050;-70
2022/03/16 00:32:55;;;;;;;69.70;37.17;;;;;;;9.95;70.42;99875.91;5174913;28;20635;-68
2022/03/16 00:35:47;;;;;;;63.08;35.25;;;;;;;9.79;70.50;99869.13;5157875;28;20050;-67
2022/03/16 00:38:37;;;;;;;66.00;36.75;;;;;;;9.90;70.55;99876.28;5151436;28;20050;-66
2022/03/16 00:41:27;;;;;;;69.10;37.40;;;;;;;9.77;71.06;99857.00;5163313;28;20058;-66
2022/03/16 00:44:18;;;;;;;73.05;38.85;;;;;;;9.80;71.20;99872.63;5148736;28;20153;-67
2022/03/16 00:47:08;;;;;;;67.43;38.40;;;;;;;9.79;70.91;99869.13;5161874;28;20523;-68
2022/03/16 00:49:58;;;;;;;64.57;36.10;;;;;;;9.87;69.77;99871.22;5161902;28;20160;-67
2022/03/16 00:52:49;;;;;;;72.70;38.33;;;;;;;9.75;70.76;99853.59;5162275;28;20092;-67
2022/03/16 00:55:40;;;;;;;70.75;38.53;;;;;;;9.85;70.34;99865.19;5174202;28;20054;-66
2022/03/16 00:58:30;;;;;;;73.95;39.60;;;;;;;9.89;70.40;99870.13;5162039;28;20057;-67
2022/03/16 01:01:22;;;;;;;73.45;38.78;;;;;;;9.79;70.71;99861.19;5161057;28;20085;-66
2022/03/16 01:04:14;;;;;;;69.38;38.00;;;;;;;9.84;70.75;99872.28;5146632;28;20057;-67
2022/03/16 01:07:05;;;;;;;71.72;38.05;;;;;;;9.79;70.79;99852.41;5173959;28;20054;-68
2022/03/16 01:09:55;;;;;;;75.30;38.85;;;;;;;9.89;70.48;99859.50;5161712;28;20050;-67
2022/03/16 01:12:45;;;;;;;72.72;38.08;;;;;;;9.81;71.01;99861.09;5161240;28;20114;-68
2022/03/16 01:15:35;;;;;;;77.10;40.38;;;;;;;9.63;71.77;99858.03;5161662;28;20542;-69
2022/03/16 01:18:25;;;;;;;76.97;39.75;;;;;;;9.47;72.28;99862.78;5132755;28;20077;-68
2022/03/16 01:21:15;;;;;;;78.68;41.17;;;;;;;9.38;72.51;99865.19;5174474;28;20062;-69
2022/03/16 01:24:05;;;;;;;76.45;39.95;;;;;;;9.53;72.40;99857.03;5167799;28;20548;-68
2022/03/16 01:26:56;;;;;;;72.78;39.97;;;;;;;9.71;71.34;99860.94;5159006;28;20053;-69
2022/03/16 01:29:46;;;;;;;77.28;40.95;;;;;;;9.75;71.23;99862.38;5168705;28;20055;-68
2022/03/16 01:32:38;;;;;;;75.57;40.40;;;;;;;9.64;71.38;99844.69;5146012;28;20066;-69
2022/03/16 01:35:28;;;;;;;78.75;40.15;;;;;;;9.72;70.96;99845.91;5148843;28;20085;-67
2022/03/16 01:38:18;;;;;;;72.93;38.53;;;;;;;9.77;71.31;99852.53;5159044;28;20061;-67
2022/03/16 01:41:08;;;;;;;81.63;40.35;;;;;;;9.79;71.29;99860.34;5159790;28;20054;-67
2022/03/16 01:43:58;;;;;;;77.43;40.45;;;;;;;9.63;72.13;99861.53;5145162;28;20051;-67
2022/03/16 01:46:51;;;;;;;76.75;39.70;;;;;;;9.57;72.35;99858.47;5162286;28;20051;-67
2022/03/16 01:49:44;;;;;;;86.03;42.15;;;;;;;9.66;71.29;99857.78;5176954;28;20417;-68
2022/03/16 01:52:34;;;;;;;79.10;41.47;;;;;;;9.67;71.21;99856.84;5163868;28;20090;-67
2022/03/16 01:55:25;;;;;;;80.63;41.45;;;;;;;9.74;71.06;99854.56;5164108;28;20587;-69
2022/03/16 01:58:17;;;;;;;80.10;41.08;;;;;;;9.60;71.77;99853.81;5164928;28;20064;-68
2022/03/16 02:01:07;;;;;;;83.90;41.72;;;;;;;9.72;70.19;99859.13;5157441;28;20190;-68
2022/03/16 02:03:57;;;;;;;83.28;41.53;;;;;;;9.67;70.91;99848.91;5151020;28;20624;-68
2022/03/16 02:06:48;;;;;;;92.90;43.67;;;;;;;9.53;72.09;99867.63;5153169;28;20109;-68
2022/03/16 02:09:39;;;;;;;88.63;43.53;;;;;;;9.71;71.35;99863.59;5149344;28;20132;-67
2022/03/16 02:12:29;;;;;;;90.25;44.03;;;;;;;9.64;70.62;99865.03;5157662;28;20050;-67
2022/03/16 02:15:20;;;;;;;91.80;44.83;;;;;;;9.63;71.06;99858.03;5166875;28;20054;-67
2022/03/16 02:18:11;;;;;;;81.80;41.38;;;;;;;9.61;70.81;99854.66;5154279;28;20158;-67
2022/03/16 02:21:05;;;;;;;81.50;41.15;;;;;;;9.70;70.78;99869.84;5164758;28;20524;-67
2022/03/16 02:23:55;;;;;;;90.28;42.63;;;;;;;9.81;70.98;99869.03;5164102;28;20061;-67
2022/03/16 02:26:45;;;;;;;89.03;41.75;;;;;;;9.68;71.07;99866.47;5164222;28;20056;-67
2022/03/16 02:29:35;;;;;;;88.97;42.13;;;;;;;9.66;71.26;99873.69;5144764;28;20137;-67
2022/03/16 02:32:26;;;;;;;87.97;43.72;;;;;;;9.67;70.67;99864.78;5145614;28;20081;-69
2022/03/16 02:35:16;;;;;;;84.95;42.20;;;;;;;9.71;70.74;99866.25;5160637;28;20057;-67
2022/03/16 02:38:06;;;;;;;84.63;41.65;;;;;;;9.67;70.74;99859.50;5144719;28;20069;-68
2022/03/16 02:40:56;;;;;;;90.40;43.78;;;;;;;9.77;70.17;99857.84;5172056;28;20069;-68
2022/03/16 02:43:46;;;;;;;91.75;44.75;;;;;;;9.79;70.09;99863.84;5163942;28;20057;-69
2022/03/16 02:46:36;;;;;;;93.93;43.78;;;;;;;9.77;70.87;99864.94;5164421;28;20615;-68
2022/03/16 02:49:28;;;;;;;91.45;45.28;;;;;;;9.72;70.54;99867.91;5163987;28;20061;-68
2022/03/16 02:52:19;;;;;;;97.13;45.13;;;;;;;9.58;70.61;99854.91;5163926;28;20072;-68
2022/03/16 02:55:09;;;;;;;94.88;43.92;;;;;;;9.72;70.53;99870.56;5170343;28;20568;-66
2022/03/16 02:58:01;;;;;;;98.32;45.78;;;;;;;9.65;71.73;99861.41;5162796;28;20046;-67
2022/03/16 03:00:50;;;;;;;92.70;45.15;;;;;;;9.73;71.01;99859.00;5150848;28;20135;-68
2022/03/16 03:03:41;;;;;;;93.75;44.15;;;;;;;9.71;70.67;99866.25;5159017;28;20495;-67
2022/03/16 03:06:32;;;;;;;94.88;44.20;;;;;;;9.73;70.98;99861.66;5161458;28;20050;-68
2022/03/16 03:09:22;;;;;;;94.25;44.58;;;;;;;9.81;70.03;99861.09;5163952;28;20057;-68
2022/03/16 03:12:12;;;;;;;88.78;44.05;;;;;;;9.75;70.96;99872.16;5162984;28;20077;-68
2022/03/16 03:15:04;;;;;;;93.93;45.58;;;;;;;9.76;70.35;99872.00;5163724;28;20061;-67
2022/03/16 03:17:54;;;;;;;90.43;42.90;;;;;;;9.70;69.81;99853.97;5163126;28;20061;-67
2022/03/16 03:20:44;;;;;;;90.45;43.75;;;;;;;9.73;70.85;99868.75;5171258;28;20101;-67
2022/03/16 03:23:34;;;;;;;85.30;42.25;;;;;;;9.73;70.48;99866.94;5163050;28;20049;-68
2022/03/16 03:26:23;;;;;;;87.07;43.13;;;;;;;9.78;69.67;99867.47;5145806;28;20042;-68
2022/03/16 03:29:14;;;;;;;90.10;42.42;;;;;;;9.85;69.99;99875.78;5156119;28;20148;-67
2022/03/16 03:32:05;;;;;;;88.25;42.80;;;;;;;9.93;69.72;99870.72;5162870;28;20054;-68
2022/03/16 03:34:55;;;;;;;92.88;44.45;;;;;;;9.79;69.85;99866.50;5175879;28;20046;-69
2022/03/16 03:37:46;;;;;;;89.18;42.42;;;;;;;9.65;70.84;99886.06;5161723;28;20192;-68
2022/03/16 03:40:36;;;;;;;89.18;42.63;;;;;;;9.67;70.27;99885.97;5149900;28;20128;-69
2022/03/16 03:43:26;;;;;;;91.05;43.97;;;;;;;9.62;71.33;99877.53;5163225;28;20132;-68
2022/03/16 03:46:16;;;;;;;93.95;43.05;;;;;;;9.63;70.70;99879.19;5161658;28;20057;-69
2022/03/16 03:49:06;;;;;;;89.32;42.58;;;;;;;9.68;70.25;99879.72;5155660;28;20058;-68
2022/03/16 03:51:56;;;;;;;95.18;45.80;;;;;;;9.65;71.55;99879.94;5160860;28;20054;-69
2022/03/16 03:54:46;;;;;;;101.75;46.05;;;;;;;9.41;72.20;99870.25;5162598;28;20038;-68
2022/03/16 03:57:36;;;;;;;97.80;46.67;;;;;;;9.57;71.10;99875.25;5162351;28;20054;-68
2022/03/16 04:00:26;;;;;;;94.22;44.67;;;;;;;9.63;71.25;99892.44;5162827;28;20058;-68
2022/03/16 04:03:16;;;;;;;100.63;46.97;;;;;;;9.54;71.02;99871.97;5162535;28;20065;-67
2022/03/16 04:06:08;;;;;;;96.32;44.92;;;;;;;9.53;71.40;99894.09;5161323;28;20062;-69
2022/03/16 04:08:58;;;;;;;99.57;45.70;;;;;;;9.59;72.07;99893.66;5162750;28;20065;-69
2022/03/16 04:11:48;;;;;;;102.57;47.80;;;;;;;9.54;71.47;99891.34;5161837;28;20057;-68
2022/03/16 04:14:38;;;;;;;104.13;47.42;;;;;;;9.53;72.05;99899.38;5162624;28;20065;-69
2022/03/16 04:17:28;;;;;;;102.35;46.72;;;;;;;9.34;72.42;99876.13;5161470;28;20069;-67
2022/03/16 04:20:19;;;;;;;93.10;45.83;;;;;;;9.47;71.70;99881.31;5147970;28;20069;-69
2022/03/16 04:23:09;;;;;;;100.30;46.13;;;;;;;9.57;71.16;99901.72;5162443;28;20069;-69
2022/03/16 04:25:59;;;;;;;102.38;47.47;;;;;;;9.62;71.31;99896.06;5161932;28;20046;-69
2022/03/16 04:28:49;;;;;;;102.82;47.95;;;;;;;9.53;72.60;99899.38;5169111;28;20042;-70
2022/03/16 04:31:39;;;;;;;102.63;46.95;;;;;;;9.60;72.06;99906.78;5176750;28;20642;-68
2022/03/16 04:34:29;;;;;;;96.43;44.88;;;;;;;9.71;70.72;99897.19;5160793;28;20061;-68
2022/03/16 04:37:20;;;;;;;100.90;45.17;;;;;;;9.67;70.61;99896.56;5161653;28;20077;-68
2022/03/16 04:40:11;;;;;;;92.15;43.80;;;;;;;9.68;71.30;99903.53;5161207;28;20431;-67
2022/03/16 04:43:01;;;;;;;97.65;45.28;;;;;;;9.74;70.42;99904.91;5152373;28;20567;-67
2022/03/16 04:45:52;;;;;;;96.97;44.58;;;;;;;9.78;71.14;99909.00;5161169;28;20049;-68
2022/03/16 04:48:43;;;;;;;97.10;45.30;;;;;;;9.83;70.29;99910.34;5162365;28;20196;-67
2022/03/16 04:51:34;;;;;;;98.55;46.47;;;;;;;9.94;70.67;99900.72;5161024;28;20129;-69
2022/03/16 04:54:24;;;;;;;94.28;44.00;;;;;;;9.72;70.51;99904.16;5149455;28;20058;-68
2022/03/16 04:57:15;;;;;;;89.75;42.70;;;;;;;9.79;70.54;99906.22;5147483;28;20525;-67
2022/03/16 05:00:06;;;;;;;89.78;43.53;;;;;;;9.79;70.77;99908.03;5143936;28;20054;-67
2022/03/16 05:02:56;;;;;;;90.72;44.35;;;;;;;9.74;70.71;99905.75;5142036;28;20051;-67
2022/03/16 05:05:47;;;;;;;94.57;44.67;;;;;;;9.73;70.39;99909.31;5147411;28;20543;-67
2022/03/16 05:08:37;;;;;;;90.45;43.83;;;;;;;9.85;70.46;99908.41;5153419;28;20144;-67
2022/03/16 05:11:28;;;;;;;87.55;42.22;;;;;;;9.72;69.63;99909.44;5158659;28;20061;-67
2022/03/16 05:14:18;;;;;;;81.70;41.00;;;;;;;9.72;70.25;99912.94;5174400;28;20140;-67
2022/03/16 05:17:08;;;;;;;81.47;39.75;;;;;;;9.88;69.28;99909.97;5165670;28;20152;-67
2022/03/16 05:19:59;;;;;;;79.20;38.83;;;;;;;9.77;68.52;99908.16;5159994;28;20188;-67
2022/03/16 05:22:51;;;;;;;71.60;38.05;;;;;;;9.44;69.32;99905.38;5160942;28;20224;-67
2022/03/16 05:25:41;;;;;;;67.28;37.50;;;;;;;9.38;69.97;99899.59;5160301;28;20060;-66
2022/03/16 05:28:32;;;;;;;71.32;38.33;;;;;;;9.77;68.14;99921.41;5162345;28;20055;-67
2022/03/16 05:31:23;;;;;;;65.03;36.55;;;;;;;9.50;68.03;99911.03;5158892;28;20126;-67
2022/03/16 05:34:13;;;;;;;70.65;38.28;;;;;;;9.53;68.72;99918.75;5161465;28;20077;-69
2022/03/16 05:37:05;;;;;;;72.28;37.80;;;;;;;9.43;68.86;99908.97;5160479;28;20058;-67
2022/03/16 05:39:55;;;;;;;72.05;38.38;;;;;;;9.46;68.03;99922.84;5157272;28;20046;-67
2022/03/16 05:42:45;;;;;;;72.50;37.30;;;;;;;9.59;67.71;99923.59;5168329;28;20061;-68
2022/03/16 05:45:35;;;;;;;76.25;39.88;;;;;;;9.48;68.72;99920.94;5160490;28;20066;-66
2022/03/16 05:48:25;;;;;;;74.35;40.40;;;;;;;9.13;68.53;99926.16;5156426;28;20539;-67
2022/03/16 05:51:15;;;;;;;71.30;38.38;;;;;;;9.53;67.89;99926.72;5156246;28;20058;-69
2022/03/16 05:54:05;;;;;;;72.90;39.28;;;;;;;9.64;66.59;99912.69;5148762;28;20109;-66
2022/03/16 05:56:55;;;;;;;72.05;38.63;;;;;;;9.24;67.87;99923.59;5173252;28;20046;-68
2022/03/16 05:59:46;;;;;;;75.18;38.35;;;;;;;9.10;68.39;99915.78;5147024;28;20054;-68
2022/03/16 06:02:36;;;;;;;70.07;38.47;;;;;;;9.39;67.00;99935.69;5159085;28;20368;-67
2022/03/16 06:05:26;;;;;;;68.90;37.80;;;;;;;9.45;66.40;99921.16;5160111;28;20058;-68
2022/03/16 06:08:17;;;;;;;69.05;37.83;;;;;;;9.38;68.31;99922.56;5156800;28;20086;-67
2022/03/16 06:11:07;;;;;;;69.22;38.42;;;;;;;9.20;67.41;99926.56;5160571;28;20722;-67
2022/03/16 06:13:57;;;;;;;73.50;38.55;;;;;;;9.16;67.56;99939.16;5141680;28;20180;-67
2022/03/16 06:16:47;;;;;;;68.28;37.72;;;;;;;8.98;67.69;99940.53;5153379;28;20416;-68
2022/03/16 06:19:41;;;;;;;68.70;36.40;;;;;;;8.82;68.46;99935.47;5144257;28;20113;-68
2022/03/16 06:22:31;;;;;;;71.05;39.13;;;;;;;8.85;69.21;99949.31;5168657;28;20061;-68
2022/03/16 06:25:26;;;;;;;71.88;37.45;;;;;;;8.65;69.98;99945.44;5147581;28;20136;-68
2022/03/16 06:28:16;;;;;;;72.90;38.72;;;;;;;8.56;70.29;99946.09;5152103;28;20559;-68
2022/03/16 06:31:06;;;;;;;69.35;38.05;;;;;;;8.42;70.27;99962.06;5164200;28;20100;-67
2022/03/16 06:33:56;;;;;;;71.57;38.28;;;;;;;8.62;70.24;99955.41;5162492;28;20050;-67
2022/03/16 06:36:46;;;;;;;75.57;39.38;;;;;;;8.46;70.25;99943.25;5164163;28;20479;-68
2022/03/16 06:39:36;;;;;;;78.82;41.33;;;;;;;8.11;70.72;99955.34;5177119;28;20054;-68
2022/03/16 06:42:26;;;;;;;73.57;39.58;;;;;;;7.85;72.15;99955.34;5159287;28;20680;-69
2022/03/16 06:45:17;;;;;;;72.82;39.75;;;;;;;8.18;70.44;99951.38;5160004;28;20050;-68
2022/03/16 06:48:08;;;;;;;72.82;38.58;;;;;;;8.56;69.72;99956.66;5163407;28;20050;-69
2022/03/16 06:50:58;;;;;;;74.22;39.45;;;;;;;8.47;69.58;99963.44;5164154;28;20243;-68
2022/03/16 06:53:49;;;;;;;75.70;38.92;;;;;;;8.79;68.91;99962.13;5164488;28;20085;-68
2022/03/16 06:56:39;;;;;;;76.47;39.03;;;;;;;9.00;68.69;99972.97;5164031;28;20180;-69
2022/03/16 06:59:29;;;;;;;70.32;38.42;;;;;;;8.78;69.04;99973.69;5147781;28;20061;-68
2022/03/16 07:02:19;;;;;;;66.40;37.45;;;;;;;8.91;68.97;99983.28;5160066;28;20667;-68
2022/03/16 07:05:11;;;;;;;67.63;37.17;;;;;;;8.85;68.22;99980.22;5163827;28;20124;-68
2022/03/16 07:08:03;;;;;;;67.35;37.35;;;;;;;9.11;67.63;99986.28;5163075;28;20057;-68
2022/03/16 07:10:53;;;;;;;64.72;36.15;;;;;;;9.25;67.53;99982.66;5162810;28;20054;-68
2022/03/16 07:14:30;;;;;;;68.00;36.50;;;;;;;9.08;68.96;99984.72;5163324;28;20641;-68
2022/03/16 07:16:54;;;;;;;63.47;35.13;;;;;;;9.30;67.82;99983.97;5159688;28;20062;-68
2022/03/16 07:19:44;;;;;;;66.70;36.63;;;;;;;9.38;67.61;99984.28;5162240;28;20420;-68
2022/03/16 07:22:36;;;;;;;63.00;34.38;;;;;;;9.03;67.46;99981.53;5175269;28;20046;-67
2022/03/16 07:25:46;;;;;;;63.97;34.75;;;;;;;9.28;68.18;99974.50;5164941;28;20570;-68
2022/03/16 07:28:36;;;;;;;64.13;34.30;;;;;;;8.82;67.92;99956.63;5164409;28;20539;-68
2022/03/16 07:31:28;;;;;;;64.40;35.10;;;;;;;8.76;70.22;99994.91;5163624;28;20046;-68
2022/03/16 07:34:18;;;;;;;62.13;34.60;;;;;;;8.79;68.49;100005.28;5163416;28;20068;-68
2022/03/16 07:37:08;;;;;;;63.80;33.72;;;;;;;8.84;68.48;100007.59;5163514;28;20050;-68
2022/03/16 07:39:58;;;;;;;57.83;31.42;;;;;;;8.76;68.71;100005.50;5143501;28;20133;-68
2022/03/16 07:42:57;;;;;;;64.65;34.00;;;;;;;8.98;69.07;100014.59;5148470;28;20055;-68
2022/03/16 07:45:48;;;;;;;64.63;33.95;;;;;;;8.98;68.87;100007.50;5143351;28;20055;-68
2022/03/16 07:48:39;;;;;;;56.47;31.42;;;;;;;9.22;68.17;100007.53;5151886;28;20086;-68
2022/03/16 07:51:29;;;;;;;62.13;33.40;;;;;;;9.15;67.85;100016.88;5162808;28;20077;-68
2022/03/16 07:54:19;;;;;;;56.60;31.60;;;;;;;9.65;67.15;100015.00;5163330;28;20054;-68
2022/03/16 07:57:10;;;;;;;57.33;32.03;;;;;;;9.47;66.63;100017.19;5163281;28;20058;-68
2022/03/16 08:00:02;;;;;;;56.55;31.48;;;;;;;9.07;68.52;100009.47;5163972;28;20058;-68
2022/03/16 08:02:54;;;;;;;59.33;31.75;;;;;;;8.64;69.38;100001.06;5162036;28;20054;-68
2022/03/16 08:05:46;;;;;;;57.95;31.38;;;;;;;8.66;69.39;100015.03;5158657;28;20532;-68
2022/03/16 08:08:39;;;;;;;56.53;30.70;;;;;;;8.78;69.15;100023.91;5157680;28;20090;-68
2022/03/16 08:11:29;;;;;;;56.28;31.55;;;;;;;8.67;70.23;100022.84;5162531;28;20141;-67
2022/03/16 08:14:19;;;;;;;52.53;29.05;;;;;;;8.96;69.24;100024.41;5146438;28;20054;-68
2022/03/16 08:17:09;;;;;;;54.60;30.65;;;;;;;8.73;68.83;100005.72;5144355;28;20222;-68
2022/03/16 08:20:00;;;;;;;58.53;31.55;;;;;;;9.31;68.60;100016.63;5146814;28;20575;-68
2022/03/16 08:22:56;;;;;;;61.08;31.33;;;;;;;9.08;68.47;100016.47;5162469;28;20124;-68
2022/03/16 08:26:06;;;;;;;57.58;31.80;;;;;;;9.51;67.03;99980.75;5161920;28;20077;-68
2022/03/16 08:28:56;;;;;;;54.63;30.23;;;;;;;9.72;66.78;100004.78;5161300;28;20058;-68
2022/03/16 08:31:46;;;;;;;54.03;30.20;;;;;;;9.98;66.71;99994.91;5161966;28;20050;-68
2022/03/16 08:34:37;;;;;;;60.33;31.17;;;;;;;10.00;66.79;100003.56;5162797;28;20154;-68
2022/03/16 08:37:26;;;;;;;55.83;30.60;;;;;;;9.84;66.45;99994.13;5147147;28;20425;-68
2022/03/16 08:40:16;;;;;;;54.25;29.63;;;;;;;9.81;67.02;100004.13;5161507;28;20160;-68
2022/03/16 08:43:07;;;;;;;52.38;29.33;;;;;;;9.97;67.44;100009.13;5162192;28;20054;-68
2022/03/16 08:46:00;;;;;;;53.30;29.52;;;;;;;9.95;67.18;100000.44;5161580;28;20421;-68
2022/03/16 08:48:51;;;;;;;52.95;29.88;;;;;;;9.81;65.99;99973.16;5161923;28;20157;-68
2022/03/16 08:51:41;;;;;;;50.28;28.40;;;;;;;10.09;66.26;100002.88;5161955;28;20788;-68
2022/03/16 08:54:31;;;;;;;50.63;29.33;;;;;;;10.37;66.36;100006.13;5161939;28;20428;-68
2022/03/16 08:57:22;;;;;;;48.17;27.23;;;;;;;10.39;65.60;99996.22;5161671;28;20432;-68
2022/03/16 09:00:15;;;;;;;45.33;26.80;;;;;;;10.16;65.93;99993.50;5146399;28;20062;-68
2022/03/16 09:03:05;;;;;;;44.33;26.77;;;;;;;10.45;66.47;99998.41;5161736;28;20054;-68
2022/03/16 09:05:55;;;;;;;47.78;27.13;;;;;;;10.29;65.77;99986.31;5161512;28;20129;-68
2022/03/16 09:08:46;;;;;;;50.33;27.95;;;;;;;10.34;66.28;99989.47;5161737;28;20428;-68
2022/03/16 09:11:38;;;;;;;45.20;27.17;;;;;;;10.48;65.52;99987.56;5142176;28;20051;-68
2022/03/16 09:14:28;;;;;;;43.72;26.23;;;;;;;9.86;68.35;99992.19;5142011;28;20472;-69
2022/03/16 09:17:20;;;;;;;47.75;28.10;;;;;;;10.20;67.81;99994.97;5149607;28;20725;-69
2022/03/16 09:20:11;;;;;;;46.53;27.33;;;;;;;10.37;65.46;99976.97;5161125;28;20138;-69
2022/03/16 09:23:01;;;;;;;47.10;27.55;;;;;;;10.54;65.85;99976.50;5169885;28;20116;-68
2022/03/16 09:25:51;;;;;;;45.70;26.70;;;;;;;10.33;65.77;99977.19;5159285;28;20570;-69
2022/03/16 09:28:41;;;;;;;48.95;27.58;;;;;;;10.50;66.29;99977.69;5161706;28;20188;-69
2022/03/16 09:31:33;;;;;;;47.38;27.67;;;;;;;11.26;63.61;99966.31;5161791;28;20542;-68
2022/03/16 09:34:23;;;;;;;44.30;27.30;;;;;;;10.28;67.38;99959.94;5161908;28;20524;-68
2022/03/16 09:37:14;;;;;;;44.35;27.10;;;;;;;10.55;67.21;99959.63;5161276;28;20428;-68
2022/03/16 09:40:05;;;;;;;46.03;26.52;;;;;;;10.98;66.12;99969.47;5161800;28;20082;-68
2022/03/16 09:42:57;;;;;;;49.20;27.38;;;;;;;11.12;65.73;99979.00;5161499;28;20062;-68
2022/03/16 09:46:06;;;;;;;46.53;27.65;;;;;;;11.18;65.60;99978.50;5160548;28;20049;-69
2022/03/16 09:48:56;;;;;;;47.70;27.75;;;;;;;10.81;66.69;99971.66;5161481;28;20062;-68
2022/03/16 09:51:49;;;;;;;45.88;27.83;;;;;;;10.77;66.74;99978.19;5162952;28;20069;-69
2022/03/16 09:54:39;;;;;;;43.50;26.38;;;;;;;11.32;64.83;99980.03;5164582;28;20460;-68
2022/03/16 09:57:29;;;;;;;45.35;26.98;;;;;;;10.60;67.23;99964.56;5165138;28;20141;-68
2022/03/16 10:00:20;;;;;;;46.80;28.13;;;;;;;10.80;66.86;99975.28;5162814;28;20058;-68
2022/03/16 10:03:10;;;;;;;48.85;27.70;;;;;;;10.77;68.09;99972.88;5165113;28;20057;-68
2022/03/16 10:06:01;;;;;;;48.42;28.13;;;;;;;10.86;67.58;99967.78;5165117;28;20069;-69
2022/03/16 10:15:18;;;;;;;44.63;27.67;;;;;;;11.20;66.98;99953.53;5157129;28;20053;-68
2022/03/16 10:18:09;;;;;;;43.47;27.02;;;;;;;10.49;66.64;99949.47;5144455;28;20190;-69
2022/03/16 10:20:59;;;;;;;45.17;27.25;;;;;;;10.64;67.94;99935.03;5150911;28;20058;-68
2022/03/16 10:23:50;;;;;;;42.72;26.55;;;;;;;10.80;67.51;99939.97;5156835;28;20470;-68
2022/03/16 10:26:51;;;;;;;40.83;25.00;;;;;;;10.68;67.30;99938.28;5162109;28;20137;-69
2022/03/16 10:29:41;;;;;;;38.08;24.77;;;;;;;11.02;67.49;99920.50;5164729;28;20058;-69
2022/03/16 10:32:32;;;;;;;39.55;24.42;;;;;;;10.82;66.99;99936.19;5163023;28;20132;-69
2022/03/16 10:35:23;;;;;;;42.30;25.65;;;;;;;10.92;68.28;99938.97;5162954;28;20052;-70
2022/03/16 10:38:14;;;;;;;44.20;26.80;;;;;;;11.26;66.43;99947.72;5169882;28;20050;-70
2022/03/16 10:47:50;;;;;;;39.35;24.38;;;;;;;11.66;65.76;99917.03;5166294;28;20049;-71
2022/03/16 10:50:44;;;;;;;38.72;24.92;;;;;;;11.40;65.19;99932.47;5162114;28;20208;-70
2022/03/16 10:53:35;;;;;;;40.33;25.10;;;;;;;11.99;65.13;99934.66;5163107;28;20145;-72
2022/03/16 10:56:27;;;;;;;41.50;25.85;;;;;;;11.96;64.18;99930.44;5163250;28;20069;-73
2022/03/16 10:59:17;;;;;;;45.65;25.95;;;;;;;11.74;64.17;99902.13;5162100;28;20065;-73
2022/03/16 11:02:13;;;;;;;44.13;25.23;;;;;;;11.76;64.89;99907.31;5164213;28;20104;-72
2022/03/16 11:05:05;;;;;;;39.38;25.58;;;;;;;12.72;64.42;99906.16;5170976;28;20137;-73
2022/03/16 11:07:56;;;;;;;39.15;23.88;;;;;;;12.70;63.03;99903.63;5173462;28;20132;-69
2022/03/16 11:10:47;;;;;;;38.17;23.90;;;;;;;12.67;63.63;99913.69;5162707;28;20049;-71
2022/03/16 11:13:37;;;;;;;38.17;23.67;;;;;;;13.11;61.75;99909.78;5163347;28;20165;-71
2022/03/16 11:16:29;;;;;;;35.50;24.15;;;;;;;12.60;64.31;99912.56;5163058;28;20104;-72
2022/03/16 11:19:23;;;;;;;35.30;21.80;;;;;;;11.94;63.94;99889.00;5186976;28;20149;-75
2022/03/16 11:22:24;;;;;;;91.20;48.38;;;;;;;12.04;63.45;99892.56;5159779;28;20053;-74
2022/03/16 11:25:16;;;;;;;46.63;28.35;;;;;;;12.88;63.37;99897.66;5159424;28;20101;-73
2022/03/16 11:28:12;;;;;;;35.42;21.67;;;;;;;13.40;61.37;99893.81;5162540;28;20057;-74
2022/03/16 11:31:08;;;;;;;39.60;23.05;;;;;;;12.67;62.80;99898.56;5161678;28;20571;-75
2022/03/16 11:34:03;;;;;;;34.20;22.83;;;;;;;12.69;61.82;99886.00;5162269;28;20057;-75
2022/03/16 11:37:00;;;;;;;35.90;22.70;;;;;;;13.15;61.12;99902.34;5175486;28;20105;-72
2022/03/16 11:39:50;;;;;;;36.13;22.67;;;;;;;13.17;62.09;99897.72;5162422;28;20543;-73
2022/03/16 11:43:04;;;;;;;32.72;21.05;;;;;;;13.65;60.73;99894.25;5162456;28;20444;-75
2022/03/16 11:45:57;;;;;;;35.80;21.95;;;;;;;12.88;62.06;99884.34;5162154;28;20129;-72
2022/03/16 11:48:54;;;;;;;33.33;21.47;;;;;;;13.42;61.53;99887.53;5162198;28;20571;-71
2022/03/16 11:52:00;;;;;;;32.25;21.23;;;;;;;13.55;61.31;99910.25;5162662;28;20132;-69
2022/03/16 11:54:51;;;;;;;35.15;21.67;;;;;;;14.16;58.59;99893.03;5162410;28;20120;-68
2022/03/16 11:57:53;;;;;;;32.33;20.02;;;;;;;14.19;57.99;99894.56;5164285;28;20112;-68
2022/03/16 12:00:44;;;;;;;33.55;20.80;;;;;;;13.96;59.70;99881.56;5164105;28;20493;-67
2022/03/16 12:03:44;;;;;;;33.40;19.10;;;;;;;13.74;59.58;99877.44;5157939;28;20081;-68
2022/03/16 12:07:04;;;;;;;31.27;20.77;;;;;;;13.83;59.49;99883.72;5172531;22;20623;-70
2022/03/16 12:09:54;;;;;;;28.85;19.10;;;;;;;13.77;59.74;99870.94;5201646;28;20109;-66
2022/03/16 12:12:54;;;;;;;30.13;19.52;;;;;;;13.56;59.21;99873.78;5189057;28;20426;-66
2022/03/16 12:15:47;;;;;;;30.48;19.58;;;;;;;13.51;59.32;99882.22;5195755;28;20045;-67
2022/03/16 12:18:46;;;;;;;33.38;20.08;;;;;;;14.02;59.09;99878.34;5211101;28;20052;-67
2022/03/16 12:21:36;;;;;;;32.10;19.80;;;;;;;14.26;58.79;99861.00;5203087;28;20115;-67
2022/03/16 12:30:56;;;;;;;29.63;19.95;;;;;;;14.17;59.57;99841.41;5209384;28;20052;-67
2022/03/16 12:33:52;;;;;;;30.52;19.73;;;;;;;14.51;56.36;99844.34;5202823;28;20678;-67
2022/03/16 12:36:42;;;;;;;31.73;19.10;;;;;;;14.51;57.44;99832.84;5225139;28;20056;-66
2022/03/16 12:39:31;;;;;;;30.85;20.52;;;;;;;14.16;57.44;99841.53;5203840;28;20099;-65
2022/03/16 12:42:31;;;;;;;29.77;19.58;;;;;;;14.10;59.09;99830.47;5208517;28;20064;-66
2022/03/16 12:45:25;;;;;;;28.60;19.52;;;;;;;14.41;57.61;99832.03;5220708;28;20078;-67
2022/03/16 12:48:20;;;;;;;29.77;18.95;;;;;;;13.96;58.05;99809.59;5220946;28;20134;-67
2022/03/16 12:51:10;;;;;;;35.92;20.55;;;;;;;13.99;57.42;99811.97;5201989;28;20045;-66
2022/03/16 12:54:00;;;;;;;35.53;20.95;;;;;;;13.97;58.23;99795.28;5220940;28;20136;-67
2022/03/16 12:56:52;;;;;;;30.15;20.15;;;;;;;13.88;58.42;99812.16;5211031;28;20068;-66
2022/03/16 12:59:52;;;;;;;30.63;19.30;;;;;;;13.67;59.33;99799.00;5216470;28;20053;-67
2022/03/16 13:02:42;;;;;;;33.67;20.40;;;;;;;14.06;58.74;99790.88;5211134;28;20068;-66
2022/03/16 13:05:36;;;;;;;29.73;19.95;;;;;;;13.63;59.47;99793.13;5219189;28;20099;-66
2022/03/16 13:08:26;;;;;;;31.55;18.65;;;;;;;13.95;58.01;99799.09;5212034;28;20056;-67
2022/03/16 13:11:24;;;;;;;32.75;19.65;;;;;;;13.78;59.68;99790.84;5200311;28;20114;-67
2022/03/16 13:14:16;;;;;;;33.80;18.40;;;;;;;13.78;58.20;99777.53;5203453;28;20493;-67
2022/03/16 13:17:07;;;;;;;29.92;17.42;;;;;;;13.73;59.28;99786.94;5207824;28;20072;-67
2022/03/16 13:19:58;;;;;;;29.23;17.83;;;;;;;13.83;59.68;99788.56;5202347;28;20076;-67
2022/03/16 13:22:48;;;;;;;32.67;17.45;;;;;;;14.33;57.40;99788.22;5209700;28;20072;-67
2022/03/16 13:25:38;;;;;;;29.58;17.42;;;;;;;14.09;57.42;99798.59;5211170;28;20492;-66
2022/03/16 13:28:30;;;;;;;29.67;17.10;;;;;;;13.46;58.74;99807.19;5224905;28;20080;-67
2022/03/16 13:31:25;;;;;;;27.98;17.55;;;;;;;13.58;59.09;99818.53;5206299;28;20107;-67
2022/03/16 13:34:18;;;;;;;31.55;17.67;;;;;;;13.97;58.77;99818.41;5209915;28;20057;-68